sensor_id;sensor_type;location;lat;lon;timestamp;pressure;altitude;pressure_sealevel;temperature;humidity
62928;BME280;51070;52.236;-0.892;2023-10-13T00:00:40;99791.16;;;14.58;100.00
62928;BME280;51070;52.236;-0.892;2023-10-13T00:03:07;99784.72;;;14.59;100.00
62928;BME280;51070;52.236;-0.892;2023-10-13T00:05:40;99781.77;;;14.61;100.00
62928;BME280;51070;52.236;-0.892;2023-10-13T00:08:09;99776.92;;;14.62;100.00
62928;BME280;51070;52.236;-0.892;2023-10-13T00:10:35;99770.83;;;14.62;100.00
62928;BME280;51070;52.236;-0.892;2023-10-13T00:13:02;99764.05;;;14.62;100.00
62928;BME280;51070;52.236;-0.892;2023-10-13T00:15:47;99756.20;;;14.63;100.00
62928;BME280;51070;52.236;-0.892;2023-10-13T00:18:29;99756.72;;;14.63;100.00
62928;BME280;51070;52.236;-0.892;2023-10-13T00:21:21;99749.09;;;14.62;100.00
62928;BME280;51070;52.236;-0.892;2023-10-13T00:24:01;99743.35;;;14.61;100.00
62928;BME280;51070;52.236;-0.892;2023-10-13T00:26:31;99736.58;;;14.61;100.00
62928;BME280;51070;52.236;-0.892;2023-10-13T00:29:02;99728.92;;;14.61;100.00
62928;BME280;51070;52.236;-0.892;2023-10-13T00:31:58;99723.17;;;14.60;100.00
62928;BME280;51070;52.236;-0.892;2023-10-13T00:34:23;99723.69;;;14.59;100.00
62928;BME280;51070;52.236;-0.892;2023-10-13T00:36:52;99715.70;;;14.57;100.00
62928;BME280;51070;52.236;-0.892;2023-10-13T00:39:41;99705.98;;;14.56;100.00
62928;BME280;51070;52.236;-0.892;2023-10-13T00:42:12;99691.01;;;14.54;100.00
62928;BME280;51070;52.236;-0.892;2023-10-13T00:44:45;99680.25;;;14.51;100.00
62928;BME280;51070;52.236;-0.892;2023-10-13T00:47:16;99666.86;;;14.50;100.00
62928;BME280;51070;52.236;-0.892;2023-10-13T00:49:58;99655.20;;;14.49;100.00
62928;BME280;51070;52.236;-0.892;2023-10-13T00:52:24;99643.90;;;14.47;100.00
62928;BME280;51070;52.236;-0.892;2023-10-13T00:54:50;99640.09;;;14.45;100.00
62928;BME280;51070;52.236;-0.892;2023-10-13T00:57:16;99630.02;;;14.44;100.00
62928;BME280;51070;52.236;-0.892;2023-10-13T00:59:58;99615.05;;;14.43;100.00
62928;BME280;51070;52.236;-0.892;2023-10-13T01:02:25;99606.01;;;14.42;100.00
62928;BME280;51070;52.236;-0.892;2023-10-13T01:05:04;99596.10;;;14.43;100.00
62928;BME280;51070;52.236;-0.892;2023-10-13T01:07:30;99588.45;;;14.42;100.00
62928;BME280;51070;52.236;-0.892;2023-10-13T01:09:55;99581.67;;;14.42;100.00
62928;BME280;51070;52.236;-0.892;2023-10-13T01:12:21;99574.91;;;14.41;100.00
62928;BME280;51070;52.236;-0.892;2023-10-13T01:14:50;99570.73;;;14.42;100.00
62928;BME280;51070;52.236;-0.892;2023-10-13T01:17:16;99567.61;;;14.41;100.00
62928;BME280;51070;52.236;-0.892;2023-10-13T01:19:41;99562.05;;;14.41;100.00
62928;BME280;51070;52.236;-0.892;2023-10-13T01:22:11;99550.73;;;14.43;100.00
62928;BME280;51070;52.236;-0.892;2023-10-13T01:24:37;99544.83;;;14.43;100.00
62928;BME280;51070;52.236;-0.892;2023-10-13T01:27:07;99539.44;;;14.42;100.00
62928;BME280;51070;52.236;-0.892;2023-10-13T01:29:46;99534.05;;;14.43;100.00
62928;BME280;51070;52.236;-0.892;2023-10-13T01:32:22;99523.97;;;14.43;100.00
62928;BME280;51070;52.236;-0.892;2023-10-13T01:34:48;99510.94;;;14.43;100.00
62928;BME280;51070;52.236;-0.892;2023-10-13T01:37:15;99504.33;;;14.43;100.00
62928;BME280;51070;52.236;-0.892;2023-10-13T01:39:41;99498.95;;;14.43;100.00
62928;BME280;51070;52.236;-0.892;2023-10-13T01:42:07;99492.52;;;14.44;100.00
62928;BME280;51070;52.236;-0.892;2023-10-13T01:44:33;99489.21;;;14.43;100.00
62928;BME280;51070;52.236;-0.892;2023-10-13T01:47:01;99484.69;;;14.44;100.00
62928;BME280;51070;52.236;-0.892;2023-10-13T01:49:35;99484.35;;;14.44;100.00
62928;BME280;51070;52.236;-0.892;2023-10-13T01:52:13;99480.17;;;14.45;100.00
62928;BME280;51070;52.236;-0.892;2023-10-13T01:54:42;99477.20;;;14.48;100.00
62928;BME280;51070;52.236;-0.892;2023-10-13T01:57:13;99477.20;;;14.51;100.00
62928;BME280;51070;52.236;-0.892;2023-10-13T01:59:44;99476.84;;;14.52;100.00
62928;BME280;51070;52.236;-0.892;2023-10-13T02:02:13;99475.27;;;14.55;100.00
62928;BME280;51070;52.236;-0.892;2023-10-13T02:04:40;99465.52;;;14.58;100.00
62928;BME280;51070;52.236;-0.892;2023-10-13T02:07:14;99465.52;;;14.61;100.00
62928;BME280;51070;52.236;-0.892;2023-10-13T02:09:41;99466.20;;;14.62;100.00
62928;BME280;51070;52.236;-0.892;2023-10-13T02:12:08;99460.80;;;14.67;100.00
62928;BME280;51070;52.236;-0.892;2023-10-13T02:14:35;99451.73;;;14.70;100.00
62928;BME280;51070;52.236;-0.892;2023-10-13T02:17:04;99448.40;;;14.75;100.00
62928;BME280;51070;52.236;-0.892;2023-10-13T02:19:42;99441.61;;;14.78;100.00
62928;BME280;51070;52.236;-0.892;2023-10-13T02:22:12;99423.67;;;14.82;100.00
62928;BME280;51070;52.236;-0.892;2023-10-13T02:24:54;99424.70;;;14.86;100.00
62928;BME280;51070;52.236;-0.892;2023-10-13T02:27:26;99417.38;;;14.89;100.00
62928;BME280;51070;52.236;-0.892;2023-10-13T02:29:51;99414.91;;;14.92;100.00
62928;BME280;51070;52.236;-0.892;2023-10-13T02:32:24;99413.70;;;14.94;100.00
62928;BME280;51070;52.236;-0.892;2023-10-13T02:34:49;99399.58;;;14.97;100.00
62928;BME280;51070;52.236;-0.892;2023-10-13T02:37:15;99398.88;;;14.98;100.00
62928;BME280;51070;52.236;-0.892;2023-10-13T02:39:44;99387.05;;;14.99;100.00
62928;BME280;51070;52.236;-0.892;2023-10-13T02:42:10;99376.96;;;14.99;100.00
62928;BME280;51070;52.236;-0.892;2023-10-13T02:44:49;99368.61;;;15.00;100.00
62928;BME280;51070;52.236;-0.892;2023-10-13T02:47:14;99362.17;;;14.99;100.00
62928;BME280;51070;52.236;-0.892;2023-10-13T02:49:40;99349.83;;;14.99;100.00
62928;BME280;51070;52.236;-0.892;2023-10-13T02:52:11;99344.26;;;14.99;100.00
62928;BME280;51070;52.236;-0.892;2023-10-13T02:54:36;99334.16;;;14.97;100.00
62928;BME280;51070;52.236;-0.892;2023-10-13T02:57:08;99330.00;;;14.97;100.00
62928;BME280;51070;52.236;-0.892;2023-10-13T02:59:33;99327.20;;;14.96;100.00
62928;BME280;51070;52.236;-0.892;2023-10-13T03:02:06;99317.82;;;14.95;100.00
62928;BME280;51070;52.236;-0.892;2023-10-13T03:04:57;99299.57;;;14.96;100.00
62928;BME280;51070;52.236;-0.892;2023-10-13T03:07:25;99296.45;;;14.95;100.00
62928;BME280;51070;52.236;-0.892;2023-10-13T03:09:57;99287.59;;;14.93;100.00
62928;BME280;51070;52.236;-0.892;2023-10-13T03:12:35;99278.55;;;14.93;100.00
62928;BME280;51070;52.236;-0.892;2023-10-13T03:15:01;99265.16;;;14.91;100.00
62928;BME280;51070;52.236;-0.892;2023-10-13T03:17:38;99256.30;;;14.90;100.00
62928;BME280;51070;52.236;-0.892;2023-10-13T03:20:13;99240.68;;;14.87;100.00
62928;BME280;51070;52.236;-0.892;2023-10-13T03:22:41;99225.72;;;14.87;100.00
62928;BME280;51070;52.236;-0.892;2023-10-13T03:25:11;99213.02;;;14.86;100.00
62928;BME280;51070;52.236;-0.892;2023-10-13T03:27:43;99208.36;;;14.84;100.00
62928;BME280;51070;52.236;-0.892;2023-10-13T03:30:18;99198.80;;;14.83;100.00
62928;BME280;51070;52.236;-0.892;2023-10-13T03:32:45;99189.94;;;14.82;100.00
62928;BME280;51070;52.236;-0.892;2023-10-13T03:35:14;99174.46;;;14.81;100.00
62928;BME280;51070;52.236;-0.892;2023-10-13T03:37:52;99160.05;;;14.80;100.00
62928;BME280;51070;52.236;-0.892;2023-10-13T03:40:18;99141.80;;;14.79;100.00
62928;BME280;51070;52.236;-0.892;2023-10-13T03:42:57;99130.66;;;14.79;100.00
62928;BME280;51070;52.236;-0.892;2023-10-13T03:45:43;99110.15;;;14.79;100.00
62928;BME280;51070;52.236;-0.892;2023-10-13T03:48:11;99093.63;;;14.79;100.00
62928;BME280;51070;52.236;-0.892;2023-10-13T03:50:46;99082.34;;;14.79;100.00
62928;BME280;51070;52.236;-0.892;2023-10-13T03:53:14;99065.12;;;14.79;100.00
62928;BME280;51070;52.236;-0.892;2023-10-13T03:55:40;99057.61;;;14.80;100.00
62928;BME280;51070;52.236;-0.892;2023-10-13T03:58:14;99048.21;;;14.81;100.00
62928;BME280;51070;52.236;-0.892;2023-10-13T04:00:41;99037.95;;;14.81;100.00
62928;BME280;51070;52.236;-0.892;2023-10-13T04:03:08;99034.13;;;14.81;100.00
62928;BME280;51070;52.236;-0.892;2023-10-13T04:05:41;99027.52;;;14.82;100.00
62928;BME280;51070;52.236;-0.892;2023-10-13T04:08:12;99025.25;;;14.83;100.00
62928;BME280;51070;52.236;-0.892;2023-10-13T04:10:54;99022.43;;;14.85;100.00
62928;BME280;51070;52.236;-0.892;2023-10-13T04:13:20;99023.28;;;14.86;100.00
62928;BME280;51070;52.236;-0.892;2023-10-13T04:16:06;99011.96;;;14.89;100.00
62928;BME280;51070;52.236;-0.892;2023-10-13T04:18:50;99021.30;;;14.91;100.00
62928;BME280;51070;52.236;-0.892;2023-10-13T04:21:25;99009.98;;;14.94;100.00
62928;BME280;51070;52.236;-0.892;2023-10-13T04:24:10;99002.80;;;14.98;100.00
62928;BME280;51070;52.236;-0.892;2023-10-13T04:26:42;98993.70;;;15.01;100.00
62928;BME280;51070;52.236;-0.892;2023-10-13T04:29:27;98986.00;;;15.04;100.00
62928;BME280;51070;52.236;-0.892;2023-10-13T04:32:11;98980.88;;;15.10;100.00
62928;BME280;51070;52.236;-0.892;2023-10-13T04:34:40;98978.36;;;15.17;100.00
62928;BME280;51070;52.236;-0.892;2023-10-13T04:37:11;98974.77;;;15.24;100.00
62928;BME280;51070;52.236;-0.892;2023-10-13T04:39:54;98966.85;;;15.31;100.00
62928;BME280;51070;52.236;-0.892;2023-10-13T04:42:25;98963.99;;;15.35;100.00
62928;BME280;51070;52.236;-0.892;2023-10-13T04:45:10;98964.21;;;15.43;100.00
62928;BME280;51070;52.236;-0.892;2023-10-13T04:47:54;98959.23;;;15.51;100.00
62928;BME280;51070;52.236;-0.892;2023-10-13T04:50:24;98953.90;;;15.60;100.00
62928;BME280;51070;52.236;-0.892;2023-10-13T04:53:00;98949.06;;;15.68;100.00
62928;BME280;51070;52.236;-0.892;2023-10-13T04:55:38;98941.62;;;15.75;100.00
62928;BME280;51070;52.236;-0.892;2023-10-13T04:58:24;98934.71;;;15.83;100.00
62928;BME280;51070;52.236;-0.892;2023-10-13T05:00:59;98926.23;;;15.90;100.00
62928;BME280;51070;52.236;-0.892;2023-10-13T05:03:44;98930.09;;;15.97;100.00
62928;BME280;51070;52.236;-0.892;2023-10-13T05:06:38;98925.27;;;16.04;100.00
62928;BME280;51070;52.236;-0.892;2023-10-13T05:09:13;98906.89;;;16.08;100.00
62928;BME280;51070;52.236;-0.892;2023-10-13T05:11:58;98900.86;;;16.14;100.00
62928;BME280;51070;52.236;-0.892;2023-10-13T05:14:42;98892.91;;;16.19;100.00
62928;BME280;51070;52.236;-0.892;2023-10-13T05:17:26;98892.27;;;16.25;100.00
62928;BME280;51070;52.236;-0.892;2023-10-13T05:20:10;98894.60;;;16.31;100.00
62928;BME280;51070;52.236;-0.892;2023-10-13T05:22:54;98885.44;;;16.36;100.00
62928;BME280;51070;52.236;-0.892;2023-10-13T05:25:39;98878.17;;;16.41;100.00
62928;BME280;51070;52.236;-0.892;2023-10-13T05:28:23;98869.71;;;16.46;100.00
62928;BME280;51070;52.236;-0.892;2023-10-13T05:31:07;98867.68;;;16.51;100.00
62928;BME280;51070;52.236;-0.892;2023-10-13T05:33:52;98870.71;;;16.57;100.00
62928;BME280;51070;52.236;-0.892;2023-10-13T05:36:36;98872.05;;;16.61;100.00
62928;BME280;51070;52.236;-0.892;2023-10-13T05:39:21;98863.74;;;16.65;100.00
62928;BME280;51070;52.236;-0.892;2023-10-13T05:42:05;98863.15;;;16.68;100.00
62928;BME280;51070;52.236;-0.892;2023-10-13T05:44:49;98859.42;;;16.72;100.00
62928;BME280;51070;52.236;-0.892;2023-10-13T05:47:33;98862.33;;;16.74;100.00
62928;BME280;51070;52.236;-0.892;2023-10-13T05:50:08;98846.23;;;16.77;100.00
62928;BME280;51070;52.236;-0.892;2023-10-13T05:52:49;98845.83;;;16.79;100.00
62928;BME280;51070;52.236;-0.892;2023-10-13T05:55:28;98834.09;;;16.81;100.00
62928;BME280;51070;52.236;-0.892;2023-10-13T05:58:12;98833.98;;;16.86;100.00
62928;BME280;51070;52.236;-0.892;2023-10-13T06:00:57;98830.95;;;16.89;100.00
62928;BME280;51070;52.236;-0.892;2023-10-13T06:03:42;98840.80;;;16.92;100.00
62928;BME280;51070;52.236;-0.892;2023-10-13T06:06:26;98839.83;;;16.97;100.00
62928;BME280;51070;52.236;-0.892;2023-10-13T06:09:10;98838.14;;;17.02;100.00
62928;BME280;51070;52.236;-0.892;2023-10-13T06:11:54;98843.27;;;17.06;100.00
62928;BME280;51070;52.236;-0.892;2023-10-13T06:14:38;98839.21;;;17.08;100.00
62928;BME280;51070;52.236;-0.892;2023-10-13T06:17:22;98845.99;;;17.09;100.00
62928;BME280;51070;52.236;-0.892;2023-10-13T06:20:07;98840.34;;;17.12;100.00
62928;BME280;51070;52.236;-0.892;2023-10-13T06:22:52;98829.30;;;17.14;100.00
62928;BME280;51070;52.236;-0.892;2023-10-13T06:25:38;98823.98;;;17.17;100.00
62928;BME280;51070;52.236;-0.892;2023-10-13T06:28:22;98828.81;;;17.19;100.00
62928;BME280;51070;52.236;-0.892;2023-10-13T06:31:07;98820.53;;;17.23;100.00
62928;BME280;51070;52.236;-0.892;2023-10-13T06:33:34;98816.42;;;17.27;100.00
62928;BME280;51070;52.236;-0.892;2023-10-13T06:36:03;98818.77;;;17.30;100.00
62928;BME280;51070;52.236;-0.892;2023-10-13T06:38:35;98822.05;;;17.32;100.00
62928;BME280;51070;52.236;-0.892;2023-10-13T06:41:04;98815.70;;;17.34;100.00
62928;BME280;51070;52.236;-0.892;2023-10-13T06:43:36;98819.00;;;17.35;100.00
62928;BME280;51070;52.236;-0.892;2023-10-13T06:46:12;98827.16;;;17.37;100.00
62928;BME280;51070;52.236;-0.892;2023-10-13T06:48:49;98820.26;;;17.40;100.00
62928;BME280;51070;52.236;-0.892;2023-10-13T06:51:18;98821.61;;;17.43;100.00
62928;BME280;51070;52.236;-0.892;2023-10-13T06:53:47;98834.44;;;17.45;100.00
62928;BME280;51070;52.236;-0.892;2023-10-13T06:56:14;98833.31;;;17.48;100.00
62928;BME280;51070;52.236;-0.892;2023-10-13T06:58:57;98838.14;;;17.51;100.00
62928;BME280;51070;52.236;-0.892;2023-10-13T07:01:29;98830.90;;;17.54;100.00
62928;BME280;51070;52.236;-0.892;2023-10-13T07:03:55;98835.70;;;17.58;100.00
62928;BME280;51070;52.236;-0.892;2023-10-13T07:06:27;98841.41;;;17.61;100.00
62928;BME280;51070;52.236;-0.892;2023-10-13T07:08:52;98833.49;;;17.63;100.00
62928;BME280;51070;52.236;-0.892;2023-10-13T07:11:19;98837.09;;;17.66;100.00
62928;BME280;51070;52.236;-0.892;2023-10-13T07:14:02;98840.12;;;17.70;100.00
62928;BME280;51070;52.236;-0.892;2023-10-13T07:16:56;98832.33;;;17.74;100.00
62928;BME280;51070;52.236;-0.892;2023-10-13T07:19:28;98830.66;;;17.78;100.00
62928;BME280;51070;52.236;-0.892;2023-10-13T07:22:02;98835.47;;;17.81;100.00
62928;BME280;51070;52.236;-0.892;2023-10-13T07:24:47;98840.96;;;17.84;100.00
62928;BME280;51070;52.236;-0.892;2023-10-13T07:27:21;98842.77;;;17.89;100.00
62928;BME280;51070;52.236;-0.892;2023-10-13T07:29:55;98840.60;;;17.92;100.00
62928;BME280;51070;52.236;-0.892;2023-10-13T07:32:43;98847.63;;;17.96;100.00
62928;BME280;51070;52.236;-0.892;2023-10-13T07:35:15;98851.13;;;18.02;100.00
62928;BME280;51070;52.236;-0.892;2023-10-13T07:37:43;98858.20;;;18.06;100.00
62928;BME280;51070;52.236;-0.892;2023-10-13T07:40:10;98854.08;;;18.09;100.00
62928;BME280;51070;52.236;-0.892;2023-10-13T07:42:52;98862.16;;;18.14;100.00
62928;BME280;51070;52.236;-0.892;2023-10-13T07:45:18;98854.30;;;18.20;100.00
62928;BME280;51070;52.236;-0.892;2023-10-13T07:48:02;98860.48;;;18.24;100.00
62928;BME280;51070;52.236;-0.892;2023-10-13T07:50:34;98861.55;;;18.29;100.00
62928;BME280;51070;52.236;-0.892;2023-10-13T07:53:00;98859.37;;;18.32;100.00
62928;BME280;51070;52.236;-0.892;2023-10-13T07:55:45;98859.70;;;18.33;100.00
62928;BME280;51070;52.236;-0.892;2023-10-13T07:58:12;98856.04;;;18.33;100.00
62928;BME280;51070;52.236;-0.892;2023-10-13T08:00:39;98858.12;;;18.33;100.00
62928;BME280;51070;52.236;-0.892;2023-10-13T08:03:11;98858.60;;;18.34;100.00
62928;BME280;51070;52.236;-0.892;2023-10-13T08:05:39;98860.67;;;18.36;100.00
62928;BME280;51070;52.236;-0.892;2023-10-13T08:08:22;98846.23;;;18.39;100.00
62928;BME280;51070;52.236;-0.892;2023-10-13T08:10:52;98850.46;;;18.44;100.00
62928;BME280;51070;52.236;-0.892;2023-10-13T08:13:21;98856.02;;;18.45;100.00
62928;BME280;51070;52.236;-0.892;2023-10-13T08:15:47;98858.27;;;18.46;100.00
62928;BME280;51070;52.236;-0.892;2023-10-13T08:18:14;98853.08;;;18.50;100.00
62928;BME280;51070;52.236;-0.892;2023-10-13T08:20:45;98838.89;;;18.58;100.00
62928;BME280;51070;52.236;-0.892;2023-10-13T08:23:11;98839.35;;;18.66;100.00
62928;BME280;51070;52.236;-0.892;2023-10-13T08:25:40;98844.66;;;18.70;100.00
62928;BME280;51070;52.236;-0.892;2023-10-13T08:28:37;98849.95;;;18.73;100.00
62928;BME280;51070;52.236;-0.892;2023-10-13T08:31:06;98849.36;;;18.76;100.00
62928;BME280;51070;52.236;-0.892;2023-10-13T08:33:51;98854.00;;;18.78;100.00
62928;BME280;51070;52.236;-0.892;2023-10-13T08:36:31;98856.92;;;18.80;100.00
62928;BME280;51070;52.236;-0.892;2023-10-13T08:38:57;98872.30;;;18.81;100.00
62928;BME280;51070;52.236;-0.892;2023-10-13T08:41:23;98867.64;;;18.85;100.00
62928;BME280;51070;52.236;-0.892;2023-10-13T08:43:50;98871.92;;;18.88;100.00
62928;BME280;51070;52.236;-0.892;2023-10-13T08:46:17;98872.45;;;18.88;100.00
62928;BME280;51070;52.236;-0.892;2023-10-13T08:48:59;98874.73;;;18.87;100.00
62928;BME280;51070;52.236;-0.892;2023-10-13T08:51:39;98869.08;;;18.89;100.00
62928;BME280;51070;52.236;-0.892;2023-10-13T08:54:18;98866.16;;;18.99;100.00
62928;BME280;51070;52.236;-0.892;2023-10-13T08:57:00;98864.33;;;19.12;100.00
62928;BME280;51070;52.236;-0.892;2023-10-13T08:59:46;98864.77;;;19.25;100.00
62928;BME280;51070;52.236;-0.892;2023-10-13T09:02:21;98867.44;;;19.35;100.00
62928;BME280;51070;52.236;-0.892;2023-10-13T09:05:07;98872.09;;;19.43;100.00
62928;BME280;51070;52.236;-0.892;2023-10-13T09:07:54;98873.27;;;19.55;100.00
62928;BME280;51070;52.236;-0.892;2023-10-13T09:10:23;98873.11;;;19.70;100.00
62928;BME280;51070;52.236;-0.892;2023-10-13T09:12:58;98875.32;;;19.88;100.00
62928;BME280;51070;52.236;-0.892;2023-10-13T09:15:30;98865.84;;;19.98;100.00
62928;BME280;51070;52.236;-0.892;2023-10-13T09:18:23;98864.70;;;20.10;99.60
62928;BME280;51070;52.236;-0.892;2023-10-13T09:21:07;98871.16;;;20.16;98.90
62928;BME280;51070;52.236;-0.892;2023-10-13T09:23:51;98871.49;;;20.21;97.96
62928;BME280;51070;52.236;-0.892;2023-10-13T09:26:35;98874.67;;;20.41;98.32
62928;BME280;51070;52.236;-0.892;2023-10-13T09:29:01;98875.31;;;20.46;98.02
62928;BME280;51070;52.236;-0.892;2023-10-13T09:31:29;98878.27;;;20.52;97.40
62928;BME280;51070;52.236;-0.892;2023-10-13T09:33:57;98875.41;;;20.54;95.96
62928;BME280;51070;52.236;-0.892;2023-10-13T09:36:23;98878.14;;;20.57;96.51
62928;BME280;51070;52.236;-0.892;2023-10-13T09:38:51;98881.38;;;20.53;95.55
62928;BME280;51070;52.236;-0.892;2023-10-13T09:41:46;98880.68;;;20.49;95.39
62928;BME280;51070;52.236;-0.892;2023-10-13T09:44:18;98880.92;;;20.42;93.98
62928;BME280;51070;52.236;-0.892;2023-10-13T09:46:47;98881.06;;;20.43;93.63
62928;BME280;51070;52.236;-0.892;2023-10-13T09:49:18;98888.64;;;20.52;93.77
62928;BME280;51070;52.236;-0.892;2023-10-13T09:52:01;98898.02;;;20.64;92.75
62928;BME280;51070;52.236;-0.892;2023-10-13T09:54:38;98898.09;;;20.72;91.37
62928;BME280;51070;52.236;-0.892;2023-10-13T09:57:16;98895.73;;;20.78;89.71
62928;BME280;51070;52.236;-0.892;2023-10-13T10:00:11;98890.14;;;20.86;88.63
62928;BME280;51070;52.236;-0.892;2023-10-13T10:03:12;98895.65;;;20.94;86.87
62928;BME280;51070;52.236;-0.892;2023-10-13T10:06:02;98904.06;;;21.07;86.42
62928;BME280;51070;52.236;-0.892;2023-10-13T10:08:34;98910.91;;;21.17;83.75
62928;BME280;51070;52.236;-0.892;2023-10-13T10:16:15;98906.19;;;21.51;82.31
62928;BME280;51070;52.236;-0.892;2023-10-13T10:18:59;98901.63;;;22.10;79.67
62928;BME280;51070;52.236;-0.892;2023-10-13T10:21:35;98902.76;;;22.28;79.25
62928;BME280;51070;52.236;-0.892;2023-10-13T10:24:01;98905.09;;;22.47;77.52
62928;BME280;51070;52.236;-0.892;2023-10-13T10:26:32;98898.73;;;22.59;76.85
62928;BME280;51070;52.236;-0.892;2023-10-13T10:28:58;98899.09;;;23.05;74.83
62928;BME280;51070;52.236;-0.892;2023-10-13T10:31:31;98897.62;;;23.32;74.53
62928;BME280;51070;52.236;-0.892;2023-10-13T10:34:15;98895.67;;;23.21;73.84
62928;BME280;51070;52.236;-0.892;2023-10-13T10:36:53;98897.25;;;23.21;74.18
62928;BME280;51070;52.236;-0.892;2023-10-13T10:39:35;98908.59;;;23.12;73.73
62928;BME280;51070;52.236;-0.892;2023-10-13T10:42:12;98899.73;;;22.91;73.58
62928;BME280;51070;52.236;-0.892;2023-10-13T10:44:41;98900.80;;;22.68;73.13
62928;BME280;51070;52.236;-0.892;2023-10-13T10:47:14;98897.34;;;22.43;73.31
62928;BME280;51070;52.236;-0.892;2023-10-13T10:50:02;98892.70;;;22.08;74.09
62928;BME280;51070;52.236;-0.892;2023-10-13T10:52:54;98896.72;;;21.72;75.41
62928;BME280;51070;52.236;-0.892;2023-10-13T10:55:22;98891.36;;;21.53;75.92
62928;BME280;51070;52.236;-0.892;2023-10-13T10:58:00;98890.95;;;21.37;77.39
62928;BME280;51070;52.236;-0.892;2023-10-13T11:00:26;98900.41;;;21.29;77.42
62928;BME280;51070;52.236;-0.892;2023-10-13T11:03:07;98904.89;;;21.49;76.47
62928;BME280;51070;52.236;-0.892;2023-10-13T11:05:43;98912.45;;;21.61;75.13
62928;BME280;51070;52.236;-0.892;2023-10-13T11:08:20;98901.90;;;21.49;74.97
62928;BME280;51070;52.236;-0.892;2023-10-13T11:10:52;98899.34;;;21.52;75.44
62928;BME280;51070;52.236;-0.892;2023-10-13T11:13:17;98900.25;;;21.37;74.73
62928;BME280;51070;52.236;-0.892;2023-10-13T11:15:48;98903.54;;;21.39;75.32
62928;BME280;51070;52.236;-0.892;2023-10-13T11:18:15;98908.09;;;21.30;74.79
62928;BME280;51070;52.236;-0.892;2023-10-13T11:20:47;98911.52;;;21.23;74.90
62928;BME280;51070;52.236;-0.892;2023-10-13T11:23:19;98910.23;;;21.11;75.56
62928;BME280;51070;52.236;-0.892;2023-10-13T11:25:59;98912.25;;;21.05;75.73
62928;BME280;51070;52.236;-0.892;2023-10-13T11:28:25;98916.86;;;21.04;75.17
62928;BME280;51070;52.236;-0.892;2023-10-13T11:30:55;98909.95;;;21.19;74.53
62928;BME280;51070;52.236;-0.892;2023-10-13T11:33:25;98910.42;;;21.38;74.35
62928;BME280;51070;52.236;-0.892;2023-10-13T11:35:57;98907.02;;;21.44;73.81
62928;BME280;51070;52.236;-0.892;2023-10-13T11:38:30;98898.27;;;21.51;73.23
62928;BME280;51070;52.236;-0.892;2023-10-13T11:41:05;98894.20;;;21.73;72.66
62928;BME280;51070;52.236;-0.892;2023-10-13T11:43:34;98896.73;;;21.71;71.16
62928;BME280;51070;52.236;-0.892;2023-10-13T11:46:10;98910.46;;;21.54;71.35
62928;BME280;51070;52.236;-0.892;2023-10-13T11:48:36;98907.52;;;21.45;71.32
62928;BME280;51070;52.236;-0.892;2023-10-13T11:51:03;98909.05;;;21.42;71.73
62928;BME280;51070;52.236;-0.892;2023-10-13T11:54:04;98909.55;;;21.29;71.98
62928;BME280;51070;52.236;-0.892;2023-10-13T11:56:29;98918.86;;;21.16;72.93
62928;BME280;51070;52.236;-0.892;2023-10-13T11:58:55;98918.16;;;21.02;73.69
62928;BME280;51070;52.236;-0.892;2023-10-13T12:01:27;98911.77;;;20.94;73.96
62928;BME280;51070;52.236;-0.892;2023-10-13T12:04:11;98905.45;;;20.99;74.39
62928;BME280;51070;52.236;-0.892;2023-10-13T12:06:55;98900.67;;;20.99;74.28
62928;BME280;51070;52.236;-0.892;2023-10-13T12:09:39;98900.57;;;20.89;73.64
62928;BME280;51070;52.236;-0.892;2023-10-13T12:12:30;98899.66;;;20.76;74.23
62928;BME280;51070;52.236;-0.892;2023-10-13T12:14:57;98894.91;;;20.67;74.99
62928;BME280;51070;52.236;-0.892;2023-10-13T12:17:24;98899.20;;;20.65;75.30
62928;BME280;51070;52.236;-0.892;2023-10-13T12:19:54;98895.92;;;20.54;74.89
62928;BME280;51070;52.236;-0.892;2023-10-13T12:22:20;98891.30;;;20.46;75.01
62928;BME280;51070;52.236;-0.892;2023-10-13T12:24:55;98887.06;;;20.38;75.13
62928;BME280;51070;52.236;-0.892;2023-10-13T12:27:20;98885.63;;;20.28;74.78
62928;BME280;51070;52.236;-0.892;2023-10-13T12:29:53;98878.20;;;20.30;75.26
62928;BME280;51070;52.236;-0.892;2023-10-13T12:32:22;98879.32;;;20.43;75.66
62928;BME280;51070;52.236;-0.892;2023-10-13T12:34:49;98880.25;;;20.55;76.00
62928;BME280;51070;52.236;-0.892;2023-10-13T12:37:28;98886.06;;;20.64;73.72
62928;BME280;51070;52.236;-0.892;2023-10-13T12:40:08;98878.59;;;20.76;74.51
62928;BME280;51070;52.236;-0.892;2023-10-13T12:42:52;98866.63;;;20.90;74.77
62928;BME280;51070;52.236;-0.892;2023-10-13T12:45:39;98862.91;;;21.05;73.24
62928;BME280;51070;52.236;-0.892;2023-10-13T12:48:23;98861.07;;;21.11;72.39
62928;BME280;51070;52.236;-0.892;2023-10-13T12:51:07;98854.36;;;21.21;72.45
62928;BME280;51070;52.236;-0.892;2023-10-13T12:53:49;98863.73;;;21.24;72.01
62928;BME280;51070;52.236;-0.892;2023-10-13T12:56:15;98867.56;;;21.21;71.23
62928;BME280;51070;52.236;-0.892;2023-10-13T12:58:41;98866.97;;;21.22;70.66
62928;BME280;51070;52.236;-0.892;2023-10-13T13:01:07;98860.66;;;21.26;70.94
62928;BME280;51070;52.236;-0.892;2023-10-13T13:03:33;98860.48;;;21.22;71.06
62928;BME280;51070;52.236;-0.892;2023-10-13T13:05:59;98859.86;;;21.20;71.44
62928;BME280;51070;52.236;-0.892;2023-10-13T13:08:28;98858.19;;;21.18;71.05
62928;BME280;51070;52.236;-0.892;2023-10-13T13:11:01;98842.71;;;21.14;70.17
62928;BME280;51070;52.236;-0.892;2023-10-13T13:13:29;98848.36;;;21.13;69.27
62928;BME280;51070;52.236;-0.892;2023-10-13T13:15:55;98842.92;;;21.17;69.02
62928;BME280;51070;52.236;-0.892;2023-10-13T13:18:21;98841.50;;;21.22;68.71
62928;BME280;51070;52.236;-0.892;2023-10-13T13:20:47;98837.23;;;21.27;69.10
62928;BME280;51070;52.236;-0.892;2023-10-13T13:23:19;98845.65;;;21.32;68.69
62928;BME280;51070;52.236;-0.892;2023-10-13T13:25:47;98846.52;;;21.37;68.40